sensor_id;sensor_type;location;lat;lon;timestamp;temperature;humidity
53520;DHT22;39397;53.204;5.778;2023-07-29T00:02:03;18.30;99.90
53520;DHT22;39397;53.204;5.778;2023-07-29T00:04:30;18.30;99.90
53520;DHT22;39397;53.204;5.778;2023-07-29T00:06:55;18.30;99.90
53520;DHT22;39397;53.204;5.778;2023-07-29T00:09:21;18.30;99.90
53520;DHT22;39397;53.204;5.778;2023-07-29T00:11:46;18.40;99.90
53520;DHT22;39397;53.204;5.778;2023-07-29T00:14:12;18.30;99.90
53520;DHT22;39397;53.204;5.778;2023-07-29T00:16:38;18.00;99.90
53520;DHT22;39397;53.204;5.778;2023-07-29T00:19:03;18.30;99.90
53520;DHT22;39397;53.204;5.778;2023-07-29T00:21:29;18.20;99.90
53520;DHT22;39397;53.204;5.778;2023-07-29T00:23:54;18.40;99.90
53520;DHT22;39397;53.204;5.778;2023-07-29T00:26:22;18.40;99.90
53520;DHT22;39397;53.204;5.778;2023-07-29T00:28:48;18.20;99.90
53520;DHT22;39397;53.204;5.778;2023-07-29T00:31:14;18.20;99.90
53520;DHT22;39397;53.204;5.778;2023-07-29T00:33:39;18.30;99.90
53520;DHT22;39397;53.204;5.778;2023-07-29T00:36:05;18.20;99.90
53520;DHT22;39397;53.204;5.778;2023-07-29T00:38:30;18.20;99.90
53520;DHT22;39397;53.204;5.778;2023-07-29T00:41:00;18.30;99.90
53520;DHT22;39397;53.204;5.778;2023-07-29T00:43:25;18.00;99.90
53520;DHT22;39397;53.204;5.778;2023-07-29T00:45:51;18.20;99.90
53520;DHT22;39397;53.204;5.778;2023-07-29T00:48:16;18.10;99.90
53520;DHT22;39397;53.204;5.778;2023-07-29T00:50:42;18.10;99.90
53520;DHT22;39397;53.204;5.778;2023-07-29T00:53:08;18.10;99.90
53520;DHT22;39397;53.204;5.778;2023-07-29T00:55:33;18.00;99.90
53520;DHT22;39397;53.204;5.778;2023-07-29T00:57:59;17.90;99.90
53520;DHT22;39397;53.204;5.778;2023-07-29T01:00:25;18.10;99.90
53520;DHT22;39397;53.204;5.778;2023-07-29T01:02:50;18.10;99.90
53520;DHT22;39397;53.204;5.778;2023-07-29T01:05:20;18.00;99.90
53520;DHT22;39397;53.204;5.778;2023-07-29T01:13:13;18.00;99.90
53520;DHT22;39397;53.204;5.778;2023-07-29T01:15:43;18.10;99.90
53520;DHT22;39397;53.204;5.778;2023-07-29T01:18:15;18.00;99.90
53520;DHT22;39397;53.204;5.778;2023-07-29T01:20:44;18.10;99.90
53520;DHT22;39397;53.204;5.778;2023-07-29T01:23:11;18.00;99.90
53520;DHT22;39397;53.204;5.778;2023-07-29T01:25:37;17.90;99.90
53520;DHT22;39397;53.204;5.778;2023-07-29T01:28:02;18.10;99.90
53520;DHT22;39397;53.204;5.778;2023-07-29T01:30:29;18.10;99.90
53520;DHT22;39397;53.204;5.778;2023-07-29T01:35:52;18.10;99.90
53520;DHT22;39397;53.204;5.778;2023-07-29T01:38:21;18.10;99.90
53520;DHT22;39397;53.204;5.778;2023-07-29T01:40:48;18.10;99.90
53520;DHT22;39397;53.204;5.778;2023-07-29T01:43:14;18.10;99.90
53520;DHT22;39397;53.204;5.778;2023-07-29T01:45:39;18.20;99.90
53520;DHT22;39397;53.204;5.778;2023-07-29T01:48:05;18.10;99.90
53520;DHT22;39397;53.204;5.778;2023-07-29T01:50:31;18.10;99.90
53520;DHT22;39397;53.204;5.778;2023-07-29T01:52:59;18.10;99.90
53520;DHT22;39397;53.204;5.778;2023-07-29T01:55:25;18.10;99.90
53520;DHT22;39397;53.204;5.778;2023-07-29T01:57:50;18.10;99.90
53520;DHT22;39397;53.204;5.778;2023-07-29T02:00:19;18.10;99.90
53520;DHT22;39397;53.204;5.778;2023-07-29T02:02:44;18.10;99.90
53520;DHT22;39397;53.204;5.778;2023-07-29T02:05:10;18.00;99.90
53520;DHT22;39397;53.204;5.778;2023-07-29T02:07:35;18.10;99.90
53520;DHT22;39397;53.204;5.778;2023-07-29T02:10:01;17.90;99.90
53520;DHT22;39397;53.204;5.778;2023-07-29T02:12:27;18.00;99.90
53520;DHT22;39397;53.204;5.778;2023-07-29T02:14:52;18.00;99.90
53520;DHT22;39397;53.204;5.778;2023-07-29T02:17:18;17.90;99.90
53520;DHT22;39397;53.204;5.778;2023-07-29T02:19:43;17.90;99.90
53520;DHT22;39397;53.204;5.778;2023-07-29T02:22:10;17.90;99.90
53520;DHT22;39397;53.204;5.778;2023-07-29T02:24:36;17.90;99.90
53520;DHT22;39397;53.204;5.778;2023-07-29T02:27:02;17.90;99.90
53520;DHT22;39397;53.204;5.778;2023-07-29T02:29:27;17.80;99.90
53520;DHT22;39397;53.204;5.778;2023-07-29T02:31:53;17.80;99.90
53520;DHT22;39397;53.204;5.778;2023-07-29T02:34:19;17.90;99.90
53520;DHT22;39397;53.204;5.778;2023-07-29T02:36:44;17.70;99.90
53520;DHT22;39397;53.204;5.778;2023-07-29T02:39:10;17.90;99.90
53520;DHT22;39397;53.204;5.778;2023-07-29T02:41:36;17.80;99.90
53520;DHT22;39397;53.204;5.778;2023-07-29T02:44:02;17.80;99.90
53520;DHT22;39397;53.204;5.778;2023-07-29T02:46:28;17.90;99.90
53520;DHT22;39397;53.204;5.778;2023-07-29T02:48:54;17.80;99.90
53520;DHT22;39397;53.204;5.778;2023-07-29T02:51:19;17.90;99.90
53520;DHT22;39397;53.204;5.778;2023-07-29T02:53:45;17.70;99.90
53520;DHT22;39397;53.204;5.778;2023-07-29T02:56:11;17.80;99.90
53520;DHT22;39397;53.204;5.778;2023-07-29T02:58:39;17.70;99.90
53520;DHT22;39397;53.204;5.778;2023-07-29T03:01:05;17.60;99.90
53520;DHT22;39397;53.204;5.778;2023-07-29T03:03:31;17.70;99.90
53520;DHT22;39397;53.204;5.778;2023-07-29T03:06:00;17.70;99.90
53520;DHT22;39397;53.204;5.778;2023-07-29T03:08:26;17.60;99.90
53520;DHT22;39397;53.204;5.778;2023-07-29T03:10:52;17.50;99.90
53520;DHT22;39397;53.204;5.778;2023-07-29T03:13:17;17.50;99.90
53520;DHT22;39397;53.204;5.778;2023-07-29T03:15:43;17.30;99.90
53520;DHT22;39397;53.204;5.778;2023-07-29T03:18:08;17.40;99.90
53520;DHT22;39397;53.204;5.778;2023-07-29T03:20:34;17.30;99.90
53520;DHT22;39397;53.204;5.778;2023-07-29T03:23:00;17.30;99.90
53520;DHT22;39397;53.204;5.778;2023-07-29T03:25:25;17.20;99.90
53520;DHT22;39397;53.204;5.778;2023-07-29T03:27:51;17.20;99.90
53520;DHT22;39397;53.204;5.778;2023-07-29T03:30:20;17.10;99.90
53520;DHT22;39397;53.204;5.778;2023-07-29T03:32:46;17.10;99.90
53520;DHT22;39397;53.204;5.778;2023-07-29T03:35:12;17.00;99.90
53520;DHT22;39397;53.204;5.778;2023-07-29T03:37:37;17.10;99.90
53520;DHT22;39397;53.204;5.778;2023-07-29T03:40:03;17.00;99.90
53520;DHT22;39397;53.204;5.778;2023-07-29T03:42:29;17.00;99.90
53520;DHT22;39397;53.204;5.778;2023-07-29T03:44:55;17.00;99.90
53520;DHT22;39397;53.204;5.778;2023-07-29T03:47:20;16.90;99.90
53520;DHT22;39397;53.204;5.778;2023-07-29T03:49:46;16.90;99.90
53520;DHT22;39397;53.204;5.778;2023-07-29T03:52:11;16.80;99.90
53520;DHT22;39397;53.204;5.778;2023-07-29T03:54:37;16.80;99.90
53520;DHT22;39397;53.204;5.778;2023-07-29T03:57:02;16.90;99.90
53520;DHT22;39397;53.204;5.778;2023-07-29T03:59:28;16.80;99.90
53520;DHT22;39397;53.204;5.778;2023-07-29T04:01:54;16.80;99.90
53520;DHT22;39397;53.204;5.778;2023-07-29T04:04:20;16.70;99.90
53520;DHT22;39397;53.204;5.778;2023-07-29T04:06:45;16.70;99.90
53520;DHT22;39397;53.204;5.778;2023-07-29T04:09:11;16.70;99.90
53520;DHT22;39397;53.204;5.778;2023-07-29T04:11:37;16.80;99.90
53520;DHT22;39397;53.204;5.778;2023-07-29T04:14:02;16.70;99.90
53520;DHT22;39397;53.204;5.778;2023-07-29T04:16:28;16.80;99.90
53520;DHT22;39397;53.204;5.778;2023-07-29T04:18:54;16.90;99.90
53520;DHT22;39397;53.204;5.778;2023-07-29T04:21:19;16.80;99.90
53520;DHT22;39397;53.204;5.778;2023-07-29T04:23:45;16.70;99.90
53520;DHT22;39397;53.204;5.778;2023-07-29T04:26:11;16.80;99.90
53520;DHT22;39397;53.204;5.778;2023-07-29T04:28:36;16.80;99.90
53520;DHT22;39397;53.204;5.778;2023-07-29T04:31:02;16.80;99.90
53520;DHT22;39397;53.204;5.778;2023-07-29T04:33:29;16.90;99.90
53520;DHT22;39397;53.204;5.778;2023-07-29T04:35:54;16.80;99.90
53520;DHT22;39397;53.204;5.778;2023-07-29T04:38:20;16.90;99.90
53520;DHT22;39397;53.204;5.778;2023-07-29T04:40:45;17.00;99.90
53520;DHT22;39397;53.204;5.778;2023-07-29T04:43:11;16.90;99.90
53520;DHT22;39397;53.204;5.778;2023-07-29T04:45:41;16.90;99.90
53520;DHT22;39397;53.204;5.778;2023-07-29T04:48:07;17.00;99.90
53520;DHT22;39397;53.204;5.778;2023-07-29T04:50:33;17.00;99.90
53520;DHT22;39397;53.204;5.778;2023-07-29T04:52:58;17.00;99.90
53520;DHT22;39397;53.204;5.778;2023-07-29T04:55:24;17.00;99.90
53520;DHT22;39397;53.204;5.778;2023-07-29T04:57:50;17.10;99.90
53520;DHT22;39397;53.204;5.778;2023-07-29T05:00:15;17.10;99.90
53520;DHT22;39397;53.204;5.778;2023-07-29T05:02:41;17.10;99.90
53520;DHT22;39397;53.204;5.778;2023-07-29T05:05:07;17.10;99.90
53520;DHT22;39397;53.204;5.778;2023-07-29T05:07:33;17.20;99.90
53520;DHT22;39397;53.204;5.778;2023-07-29T05:09:59;17.10;99.90
53520;DHT22;39397;53.204;5.778;2023-07-29T05:12:24;15.40;99.90
53520;DHT22;39397;53.204;5.778;2023-07-29T05:14:50;17.20;99.90
53520;DHT22;39397;53.204;5.778;2023-07-29T05:17:15;17.30;99.90
53520;DHT22;39397;53.204;5.778;2023-07-29T05:19:41;17.40;99.90
53520;DHT22;39397;53.204;5.778;2023-07-29T05:22:06;17.30;99.90
53520;DHT22;39397;53.204;5.778;2023-07-29T05:24:32;17.40;99.90
53520;DHT22;39397;53.204;5.778;2023-07-29T05:26:58;17.50;99.90
53520;DHT22;39397;53.204;5.778;2023-07-29T05:29:23;17.40;99.90
53520;DHT22;39397;53.204;5.778;2023-07-29T05:31:49;17.50;99.90
53520;DHT22;39397;53.204;5.778;2023-07-29T05:34:14;17.60;99.90
53520;DHT22;39397;53.204;5.778;2023-07-29T05:36:40;17.50;99.90
53520;DHT22;39397;53.204;5.778;2023-07-29T05:39:06;17.60;99.90
53520;DHT22;39397;53.204;5.778;2023-07-29T05:41:32;17.60;99.90
53520;DHT22;39397;53.204;5.778;2023-07-29T05:43:58;17.50;99.90
53520;DHT22;39397;53.204;5.778;2023-07-29T05:46:23;17.60;99.90
53520;DHT22;39397;53.204;5.778;2023-07-29T05:48:49;17.60;99.90
53520;DHT22;39397;53.204;5.778;2023-07-29T05:51:14;17.70;99.90
53520;DHT22;39397;53.204;5.778;2023-07-29T05:53:40;17.80;99.90
53520;DHT22;39397;53.204;5.778;2023-07-29T05:56:06;17.80;99.90
53520;DHT22;39397;53.204;5.778;2023-07-29T05:58:31;17.90;99.90
53520;DHT22;39397;53.204;5.778;2023-07-29T06:00:57;18.00;99.90
53520;DHT22;39397;53.204;5.778;2023-07-29T06:03:23;18.00;99.90
53520;DHT22;39397;53.204;5.778;2023-07-29T06:05:49;18.20;99.90
53520;DHT22;39397;53.204;5.778;2023-07-29T06:08:14;18.20;99.90
53520;DHT22;39397;53.204;5.778;2023-07-29T06:10:40;18.30;99.90
53520;DHT22;39397;53.204;5.778;2023-07-29T06:13:05;18.50;99.90
53520;DHT22;39397;53.204;5.778;2023-07-29T06:15:31;19.30;99.90
53520;DHT22;39397;53.204;5.778;2023-07-29T06:17:57;18.60;99.90
53520;DHT22;39397;53.204;5.778;2023-07-29T06:20:22;18.90;99.90
53520;DHT22;39397;53.204;5.778;2023-07-29T06:22:48;18.90;99.90
53520;DHT22;39397;53.204;5.778;2023-07-29T06:25:13;19.10;99.90
53520;DHT22;39397;53.204;5.778;2023-07-29T06:27:39;19.20;99.90
53520;DHT22;39397;53.204;5.778;2023-07-29T06:30:05;19.30;99.90
53520;DHT22;39397;53.204;5.778;2023-07-29T06:32:31;19.30;99.90
53520;DHT22;39397;53.204;5.778;2023-07-29T06:34:56;19.30;99.90
53520;DHT22;39397;53.204;5.778;2023-07-29T06:37:22;19.30;99.90
53520;DHT22;39397;53.204;5.778;2023-07-29T06:39:48;19.40;99.90
53520;DHT22;39397;53.204;5.778;2023-07-29T06:42:16;19.30;99.90
53520;DHT22;39397;53.204;5.778;2023-07-29T06:44:41;19.90;99.90
53520;DHT22;39397;53.204;5.778;2023-07-29T06:47:07;19.30;99.90
53520;DHT22;39397;53.204;5.778;2023-07-29T06:49:32;19.30;99.90
53520;DHT22;39397;53.204;5.778;2023-07-29T06:51:58;19.30;99.90
53520;DHT22;39397;53.204;5.778;2023-07-29T06:54:24;19.40;99.90
53520;DHT22;39397;53.204;5.778;2023-07-29T06:56:50;19.30;99.90
53520;DHT22;39397;53.204;5.778;2023-07-29T06:59:16;19.40;99.90
53520;DHT22;39397;53.204;5.778;2023-07-29T07:01:41;19.30;99.90
53520;DHT22;39397;53.204;5.778;2023-07-29T07:04:07;19.40;99.90
53520;DHT22;39397;53.204;5.778;2023-07-29T07:06:32;19.30;99.90
53520;DHT22;39397;53.204;5.778;2023-07-29T07:08:58;19.30;99.90
53520;DHT22;39397;53.204;5.778;2023-07-29T07:11:23;19.20;99.90
53520;DHT22;39397;53.204;5.778;2023-07-29T07:13:49;19.30;99.90
53520;DHT22;39397;53.204;5.778;2023-07-29T07:16:15;19.50;99.90
53520;DHT22;39397;53.204;5.778;2023-07-29T07:18:40;19.50;99.90
53520;DHT22;39397;53.204;5.778;2023-07-29T07:21:06;19.80;99.90
53520;DHT22;39397;53.204;5.778;2023-07-29T07:23:32;19.90;99.90
53520;DHT22;39397;53.204;5.778;2023-07-29T07:25:57;20.10;99.90
53520;DHT22;39397;53.204;5.778;2023-07-29T07:28:23;20.20;99.90
53520;DHT22;39397;53.204;5.778;2023-07-29T07:30:49;20.20;99.90
53520;DHT22;39397;53.204;5.778;2023-07-29T07:33:14;20.20;99.90
53520;DHT22;39397;53.204;5.778;2023-07-29T07:35:40;20.20;99.90
53520;DHT22;39397;53.204;5.778;2023-07-29T07:38:07;20.10;99.90
53520;DHT22;39397;53.204;5.778;2023-07-29T07:40:35;20.10;99.90
53520;DHT22;39397;53.204;5.778;2023-07-29T07:43:01;20.20;99.90
53520;DHT22;39397;53.204;5.778;2023-07-29T07:45:26;20.20;99.90
53520;DHT22;39397;53.204;5.778;2023-07-29T07:47:52;20.30;99.90
53520;DHT22;39397;53.204;5.778;2023-07-29T07:50:19;20.60;99.90
53520;DHT22;39397;53.204;5.778;2023-07-29T07:52:44;20.20;99.90
53520;DHT22;39397;53.204;5.778;2023-07-29T07:55:10;20.20;99.90
53520;DHT22;39397;53.204;5.778;2023-07-29T07:57:36;20.20;99.90
53520;DHT22;39397;53.204;5.778;2023-07-29T08:00:01;20.20;99.90
53520;DHT22;39397;53.204;5.778;2023-07-29T08:02:27;20.50;99.90
53520;DHT22;39397;53.204;5.778;2023-07-29T08:04:53;20.30;99.90
53520;DHT22;39397;53.204;5.778;2023-07-29T08:07:18;20.40;99.90
53520;DHT22;39397;53.204;5.778;2023-07-29T08:09:44;20.60;99.90
53520;DHT22;39397;53.204;5.778;2023-07-29T08:12:10;20.80;99.90
53520;DHT22;39397;53.204;5.778;2023-07-29T08:14:35;22.20;99.90
53520;DHT22;39397;53.204;5.778;2023-07-29T08:17:01;20.90;99.90
53520;DHT22;39397;53.204;5.778;2023-07-29T08:19:27;20.80;99.90
53520;DHT22;39397;53.204;5.778;2023-07-29T08:21:52;20.70;99.90
53520;DHT22;39397;53.204;5.778;2023-07-29T08:24:18;20.60;99.90
53520;DHT22;39397;53.204;5.778;2023-07-29T08:26:43;20.60;99.90
53520;DHT22;39397;53.204;5.778;2023-07-29T08:29:09;20.50;99.90
53520;DHT22;39397;53.204;5.778;2023-07-29T08:31:35;20.70;99.90
53520;DHT22;39397;53.204;5.778;2023-07-29T08:34:00;20.90;99.90
53520;DHT22;39397;53.204;5.778;2023-07-29T08:36:26;20.90;99.90
53520;DHT22;39397;53.204;5.778;2023-07-29T08:38:52;21.00;99.90
53520;DHT22;39397;53.204;5.778;2023-07-29T08:41:31;21.10;99.90
53520;DHT22;39397;53.204;5.778;2023-07-29T08:44:06;21.20;99.90
53520;DHT22;39397;53.204;5.778;2023-07-29T08:46:34;21.30;99.90
53520;DHT22;39397;53.204;5.778;2023-07-29T08:48:59;21.40;99.90
53520;DHT22;39397;53.204;5.778;2023-07-29T08:51:27;21.40;99.90
53520;DHT22;39397;53.204;5.778;2023-07-29T08:53:53;21.30;99.90
53520;DHT22;39397;53.204;5.778;2023-07-29T08:56:19;21.40;99.90
53520;DHT22;39397;53.204;5.778;2023-07-29T08:58:45;21.70;99.90
53520;DHT22;39397;53.204;5.778;2023-07-29T09:01:10;21.30;99.90
53520;DHT22;39397;53.204;5.778;2023-07-29T09:03:37;21.20;99.90
53520;DHT22;39397;53.204;5.778;2023-07-29T09:06:02;21.10;99.90
53520;DHT22;39397;53.204;5.778;2023-07-29T09:08:28;21.30;99.90
53520;DHT22;39397;53.204;5.778;2023-07-29T09:10:54;21.40;99.90
53520;DHT22;39397;53.204;5.778;2023-07-29T09:13:21;21.70;99.90
53520;DHT22;39397;53.204;5.778;2023-07-29T09:15:47;21.50;99.90
53520;DHT22;39397;53.204;5.778;2023-07-29T09:18:16;21.80;99.90
53520;DHT22;39397;53.204;5.778;2023-07-29T09:20:42;21.70;99.90
53520;DHT22;39397;53.204;5.778;2023-07-29T09:23:08;21.90;99.90
53520;DHT22;39397;53.204;5.778;2023-07-29T09:25:35;21.80;99.90
53520;DHT22;39397;53.204;5.778;2023-07-29T09:28:01;21.90;99.90
53520;DHT22;39397;53.204;5.778;2023-07-29T09:30:32;22.00;99.90
53520;DHT22;39397;53.204;5.778;2023-07-29T09:32:58;21.90;99.90
53520;DHT22;39397;53.204;5.778;2023-07-29T09:35:33;22.00;99.90
53520;DHT22;39397;53.204;5.778;2023-07-29T09:37:59;22.10;99.90
53520;DHT22;39397;53.204;5.778;2023-07-29T09:40:24;22.00;99.90
53520;DHT22;39397;53.204;5.778;2023-07-29T09:42:54;22.00;99.90
53520;DHT22;39397;53.204;5.778;2023-07-29T09:45:29;22.00;99.90
53520;DHT22;39397;53.204;5.778;2023-07-29T09:47:54;22.00;99.90
53520;DHT22;39397;53.204;5.778;2023-07-29T09:50:25;22.10;99.90
53520;DHT22;39397;53.204;5.778;2023-07-29T09:52:51;21.90;99.90
53520;DHT22;39397;53.204;5.778;2023-07-29T09:55:17;22.00;99.90
53520;DHT22;39397;53.204;5.778;2023-07-29T09:57:42;22.00;99.90
53520;DHT22;39397;53.204;5.778;2023-07-29T10:00:10;22.20;99.90
53520;DHT22;39397;53.204;5.778;2023-07-29T10:02:43;22.20;99.90
53520;DHT22;39397;53.204;5.778;2023-07-29T10:05:08;22.50;99.90
53520;DHT22;39397;53.204;5.778;2023-07-29T10:07:37;22.70;99.90
53520;DHT22;39397;53.204;5.778;2023-07-29T10:10:04;22.70;99.90
53520;DHT22;39397;53.204;5.778;2023-07-29T10:12:33;22.60;99.90
53520;DHT22;39397;53.204;5.778;2023-07-29T10:15:03;22.50;99.90
53520;DHT22;39397;53.204;5.778;2023-07-29T10:17:29;22.20;99.90
53520;DHT22;39397;53.204;5.778;2023-07-29T10:19:55;22.20;99.90
53520;DHT22;39397;53.204;5.778;2023-07-29T10:22:22;22.30;99.90
53520;DHT22;39397;53.204;5.778;2023-07-29T10:24:49;22.30;99.90
53520;DHT22;39397;53.204;5.778;2023-07-29T10:27:17;22.50;99.90
53520;DHT22;39397;53.204;5.778;2023-07-29T10:29:43;22.40;99.90
53520;DHT22;39397;53.204;5.778;2023-07-29T10:32:09;22.50;99.90
53520;DHT22;39397;53.204;5.778;2023-07-29T10:34:36;22.40;99.90
53520;DHT22;39397;53.204;5.778;2023-07-29T10:37:02;22.60;99.90
53520;DHT22;39397;53.204;5.778;2023-07-29T10:39:27;22.60;99.90
53520;DHT22;39397;53.204;5.778;2023-07-29T10:41:59;22.70;99.90
53520;DHT22;39397;53.204;5.778;2023-07-29T10:45:09;22.80;99.90
53520;DHT22;39397;53.204;5.778;2023-07-29T10:47:26;22.80;99.90
53520;DHT22;39397;53.204;5.778;2023-07-29T10:49:53;22.60;99.90
53520;DHT22;39397;53.204;5.778;2023-07-29T10:55:00;22.50;99.90
53520;DHT22;39397;53.204;5.778;2023-07-29T10:57:39;22.40;99.90
53520;DHT22;39397;53.204;5.778;2023-07-29T11:00:06;22.10;99.90
53520;DHT22;39397;53.204;5.778;2023-07-29T11:02:36;21.80;99.90
53520;DHT22;39397;53.204;5.778;2023-07-29T11:05:17;21.40;99.90
53520;DHT22;39397;53.204;5.778;2023-07-29T11:07:44;21.20;99.90
53520;DHT22;39397;53.204;5.778;2023-07-29T11:10:11;21.00;99.90
53520;DHT22;39397;53.204;5.778;2023-07-29T11:15:22;23.00;99.90
53520;DHT22;39397;53.204;5.778;2023-07-29T11:20:17;20.80;99.90
53520;DHT22;39397;53.204;5.778;2023-07-29T11:22:43;20.80;99.90
53520;DHT22;39397;53.204;5.778;2023-07-29T11:25:09;20.80;99.90
53520;DHT22;39397;53.204;5.778;2023-07-29T11:27:36;20.90;99.90
53520;DHT22;39397;53.204;5.778;2023-07-29T11:30:05;21.10;99.90
53520;DHT22;39397;53.204;5.778;2023-07-29T11:32:31;21.40;99.90
53520;DHT22;39397;53.204;5.778;2023-07-29T11:35:00;21.60;99.90
53520;DHT22;39397;53.204;5.778;2023-07-29T11:37:26;21.50;99.90
53520;DHT22;39397;53.204;5.778;2023-07-29T11:39:52;21.50;99.90
53520;DHT22;39397;53.204;5.778;2023-07-29T11:42:17;21.60;99.90
53520;DHT22;39397;53.204;5.778;2023-07-29T11:44:43;21.90;99.90
53520;DHT22;39397;53.204;5.778;2023-07-29T11:47:09;22.20;99.90
53520;DHT22;39397;53.204;5.778;2023-07-29T11:49:35;22.30;99.90
53520;DHT22;39397;53.204;5.778;2023-07-29T11:52:02;23.10;99.90
53520;DHT22;39397;53.204;5.778;2023-07-29T11:54:28;22.40;99.90
53520;DHT22;39397;53.204;5.778;2023-07-29T11:56:54;22.40;99.90
53520;DHT22;39397;53.204;5.778;2023-07-29T11:59:20;22.30;99.90
53520;DHT22;39397;53.204;5.778;2023-07-29T12:01:46;22.20;99.90
53520;DHT22;39397;53.204;5.778;2023-07-29T12:04:12;22.30;99.90
53520;DHT22;39397;53.204;5.778;2023-07-29T12:06:37;22.10;99.90
53520;DHT22;39397;53.204;5.778;2023-07-29T12:09:03;22.00;99.90
53520;DHT22;39397;53.204;5.778;2023-07-29T12:11:29;21.90;99.90
53520;DHT22;39397;53.204;5.778;2023-07-29T12:13:54;21.70;99.90
53520;DHT22;39397;53.204;5.778;2023-07-29T12:16:20;21.70;99.90
53520;DHT22;39397;53.204;5.778;2023-07-29T12:18:46;21.60;99.90
53520;DHT22;39397;53.204;5.778;2023-07-29T12:21:14;21.60;99.90
53520;DHT22;39397;53.204;5.778;2023-07-29T12:23:39;21.50;99.90
53520;DHT22;39397;53.204;5.778;2023-07-29T12:26:05;21.70;99.90
53520;DHT22;39397;53.204;5.778;2023-07-29T12:28:31;21.80;99.90
53520;DHT22;39397;53.204;5.778;2023-07-29T12:30:56;21.80;99.90
53520;DHT22;39397;53.204;5.778;2023-07-29T12:33:34;21.80;99.90
53520;DHT22;39397;53.204;5.778;2023-07-29T12:36:01;22.10;99.90
53520;DHT22;39397;53.204;5.778;2023-07-29T12:38:27;22.00;99.90
53520;DHT22;39397;53.204;5.778;2023-07-29T12:40:53;22.10;99.90
53520;DHT22;39397;53.204;5.778;2023-07-29T12:43:19;22.10;99.90
53520;DHT22;39397;53.204;5.778;2023-07-29T12:45:44;22.20;99.90
53520;DHT22;39397;53.204;5.778;2023-07-29T12:48:10;22.50;99.90
53520;DHT22;39397;53.204;5.778;2023-07-29T12:50:36;22.70;99.90
53520;DHT22;39397;53.204;5.778;2023-07-29T12:53:02;22.80;99.90
53520;DHT22;39397;53.204;5.778;2023-07-29T12:55:28;22.90;99.90
53520;DHT22;39397;53.204;5.778;2023-07-29T12:57:53;23.00;99.90
53520;DHT22;39397;53.204;5.778;2023-07-29T13:00:19;23.10;99.90
53520;DHT22;39397;53.204;5.778;2023-07-29T13:02:50;23.10;99.90
53520;DHT22;39397;53.204;5.778;2023-07-29T13:05:16;23.30;99.90
53520;DHT22;39397;53.204;5.778;2023-07-29T13:07:42;23.10;99.90
53520;DHT22;39397;53.204;5.778;2023-07-29T13:10:08;22.80;99.90
53520;DHT22;39397;53.204;5.778;2023-07-29T13:12:34;22.70;99.90
53520;DHT22;39397;53.204;5.778;2023-07-29T13:14:59;22.80;99.90
53520;DHT22;39397;53.204;5.778;2023-07-29T13:17:25;23.10;99.90
53520;DHT22;39397;53.204;5.778;2023-07-29T13:19:50;23.10;99.90
53520;DHT22;39397;53.204;5.778;2023-07-29T13:22:16;22.90;99.90
53520;DHT22;39397;53.204;5.778;2023-07-29T13:24:45;23.60;99.90
53520;DHT22;39397;53.204;5.778;2023-07-29T13:27:11;23.20;99.90
53520;DHT22;39397;53.204;5.778;2023-07-29T13:29:36;23.00;99.90
53520;DHT22;39397;53.204;5.778;2023-07-29T13:32:02;23.00;99.90
53520;DHT22;39397;53.204;5.778;2023-07-29T13:34:28;23.00;99.90
53520;DHT22;39397;53.204;5.778;2023-07-29T13:36:53;22.90;99.90
53520;DHT22;39397;53.204;5.778;2023-07-29T13:39:19;22.80;99.90
53520;DHT22;39397;53.204;5.778;2023-07-29T13:41:44;22.90;99.90
53520;DHT22;39397;53.204;5.778;2023-07-29T13:44:10;23.00;99.90
53520;DHT22;39397;53.204;5.778;2023-07-29T13:46:35;22.90;99.90
53520;DHT22;39397;53.204;5.778;2023-07-29T13:49:01;21.40;99.90
53520;DHT22;39397;53.204;5.778;2023-07-29T13:51:27;23.00;99.90
53520;DHT22;39397;53.204;5.778;2023-07-29T13:53:52;23.00;99.90
53520;DHT22;39397;53.204;5.778;2023-07-29T13:56:18;23.00;99.90
53520;DHT22;39397;53.204;5.778;2023-07-29T13:58:44;22.90;99.90
53520;DHT22;39397;53.204;5.778;2023-07-29T14:01:09;22.80;99.90
53520;DHT22;39397;53.204;5.778;2023-07-29T14:03:35;22.80;99.90
53520;DHT22;39397;53.204;5.778;2023-07-29T14:06:00;22.80;99.90
53520;DHT22;39397;53.204;5.778;2023-07-29T14:08:26;23.00;99.90
53520;DHT22;39397;53.204;5.778;2023-07-29T14:10:51;22.90;99.90
53520;DHT22;39397;53.204;5.778;2023-07-29T14:13:17;23.00;99.90
53520;DHT22;39397;53.204;5.778;2023-07-29T14:15:43;22.80;99.90
53520;DHT22;39397;53.204;5.778;2023-07-29T14:18:08;25.40;99.90
53520;DHT22;39397;53.204;5.778;2023-07-29T14:20:34;23.10;99.90
53520;DHT22;39397;53.204;5.778;2023-07-29T14:22:59;23.10;99.90
53520;DHT22;39397;53.204;5.778;2023-07-29T14:25:25;23.20;99.90
53520;DHT22;39397;53.204;5.778;2023-07-29T14:27:50;23.30;99.90
53520;DHT22;39397;53.204;5.778;2023-07-29T14:30:16;23.50;99.90
53520;DHT22;39397;53.204;5.778;2023-07-29T14:32:42;23.60;99.90
53520;DHT22;39397;53.204;5.778;2023-07-29T14:35:07;23.70;99.90
53520;DHT22;39397;53.204;5.778;2023-07-29T14:37:33;23.70;99.90
53520;DHT22;39397;53.204;5.778;2023-07-29T14:39:59;23.80;99.90
53520;DHT22;39397;53.204;5.778;2023-07-29T14:42:25;23.90;99.90
53520;DHT22;39397;53.204;5.778;2023-07-29T14:44:50;23.70;99.70
53520;DHT22;39397;53.204;5.778;2023-07-29T14:47:16;23.70;99.90
53520;DHT22;39397;53.204;5.778;2023-07-29T14:49:41;23.60;99.90
53520;DHT22;39397;53.204;5.778;2023-07-29T14:52:07;23.70;99.90
53520;DHT22;39397;53.204;5.778;2023-07-29T14:54:33;23.70;99.90
53520;DHT22;39397;53.204;5.778;2023-07-29T14:56:58;23.80;99.90
53520;DHT22;39397;53.204;5.778;2023-07-29T14:59:24;23.90;99.90
53520;DHT22;39397;53.204;5.778;2023-07-29T15:01:49;23.80;99.90
53520;DHT22;39397;53.204;5.778;2023-07-29T15:04:15;24.20;99.90
53520;DHT22;39397;53.204;5.778;2023-07-29T15:06:41;24.20;99.90
53520;DHT22;39397;53.204;5.778;2023-07-29T15:09:07;24.10;99.30
53520;DHT22;39397;53.204;5.778;2023-07-29T15:11:32;24.20;99.90
53520;DHT22;39397;53.204;5.778;2023-07-29T15:13:58;24.20;99.90
53520;DHT22;39397;53.204;5.778;2023-07-29T15:16:24;24.30;99.90
53520;DHT22;39397;53.204;5.778;2023-07-29T15:18:50;24.30;99.20
53520;DHT22;39397;53.204;5.778;2023-07-29T15:21:16;24.40;99.90
53520;DHT22;39397;53.204;5.778;2023-07-29T15:23:43;24.40;99.90
53520;DHT22;39397;53.204;5.778;2023-07-29T15:26:08;24.30;99.90
53520;DHT22;39397;53.204;5.778;2023-07-29T15:28:34;24.50;99.90
53520;DHT22;39397;53.204;5.778;2023-07-29T15:30:59;24.70;99.90
53520;DHT22;39397;53.204;5.778;2023-07-29T15:33:25;24.90;99.50
53520;DHT22;39397;53.204;5.778;2023-07-29T15:35:51;24.90;98.10
53520;DHT22;39397;53.204;5.778;2023-07-29T15:38:17;25.10;97.60
53520;DHT22;39397;53.204;5.778;2023-07-29T15:40:43;24.90;97.70